sensor_id;sensor_type;location;lat;lon;timestamp;temperature;humidity
82836;DHT22;72587;50.746;8.246;2023-12-29T00:00:02;8.00;99.90
82836;DHT22;72587;50.746;8.246;2023-12-29T00:02:28;8.00;99.90
82836;DHT22;72587;50.746;8.246;2023-12-29T00:04:54;8.00;99.90
82836;DHT22;72587;50.746;8.246;2023-12-29T00:07:19;8.10;99.90
82836;DHT22;72587;50.746;8.246;2023-12-29T00:09:45;8.10;99.90
82836;DHT22;72587;50.746;8.246;2023-12-29T00:12:11;8.10;99.90
82836;DHT22;72587;50.746;8.246;2023-12-29T00:14:38;8.00;99.90
82836;DHT22;72587;50.746;8.246;2023-12-29T00:17:04;8.00;99.90
82836;DHT22;72587;50.746;8.246;2023-12-29T00:19:29;8.00;99.90
82836;DHT22;72587;50.746;8.246;2023-12-29T00:21:55;8.00;99.90
82836;DHT22;72587;50.746;8.246;2023-12-29T00:24:20;8.10;99.90
82836;DHT22;72587;50.746;8.246;2023-12-29T00:26:46;8.00;99.90
82836;DHT22;72587;50.746;8.246;2023-12-29T00:29:14;7.90;99.90
82836;DHT22;72587;50.746;8.246;2023-12-29T00:31:40;7.80;99.90
82836;DHT22;72587;50.746;8.246;2023-12-29T00:34:06;7.80;99.90
82836;DHT22;72587;50.746;8.246;2023-12-29T00:36:31;7.80;99.90
82836;DHT22;72587;50.746;8.246;2023-12-29T00:38:57;7.80;99.90
82836;DHT22;72587;50.746;8.246;2023-12-29T00:41:23;7.80;99.90
82836;DHT22;72587;50.746;8.246;2023-12-29T00:43:48;7.80;99.90
82836;DHT22;72587;50.746;8.246;2023-12-29T00:46:14;7.80;99.90
82836;DHT22;72587;50.746;8.246;2023-12-29T00:48:41;7.90;99.90
82836;DHT22;72587;50.746;8.246;2023-12-29T00:51:07;8.00;99.90
82836;DHT22;72587;50.746;8.246;2023-12-29T00:53:34;8.10;99.90
82836;DHT22;72587;50.746;8.246;2023-12-29T00:56:00;8.10;99.90
82836;DHT22;72587;50.746;8.246;2023-12-29T00:58:26;8.10;99.90
82836;DHT22;72587;50.746;8.246;2023-12-29T01:00:51;8.20;99.90
82836;DHT22;72587;50.746;8.246;2023-12-29T01:03:17;8.30;99.90
82836;DHT22;72587;50.746;8.246;2023-12-29T01:05:43;8.40;99.90
82836;DHT22;72587;50.746;8.246;2023-12-29T01:08:08;8.40;99.90
82836;DHT22;72587;50.746;8.246;2023-12-29T01:10:34;8.40;99.90
82836;DHT22;72587;50.746;8.246;2023-12-29T01:12:59;8.40;99.90
82836;DHT22;72587;50.746;8.246;2023-12-29T01:15:25;8.50;99.90
82836;DHT22;72587;50.746;8.246;2023-12-29T01:17:50;8.50;99.90
82836;DHT22;72587;50.746;8.246;2023-12-29T01:20:16;8.50;99.90
82836;DHT22;72587;50.746;8.246;2023-12-29T01:22:42;8.50;99.90
82836;DHT22;72587;50.746;8.246;2023-12-29T01:25:07;8.50;99.90
82836;DHT22;72587;50.746;8.246;2023-12-29T01:27:33;8.50;99.90
82836;DHT22;72587;50.746;8.246;2023-12-29T01:29:58;8.50;99.90
82836;DHT22;72587;50.746;8.246;2023-12-29T01:32:25;8.40;99.90
82836;DHT22;72587;50.746;8.246;2023-12-29T01:34:52;8.40;99.90
82836;DHT22;72587;50.746;8.246;2023-12-29T01:37:18;8.40;99.90
82836;DHT22;72587;50.746;8.246;2023-12-29T01:39:43;8.30;99.90
82836;DHT22;72587;50.746;8.246;2023-12-29T01:42:09;8.30;99.90
82836;DHT22;72587;50.746;8.246;2023-12-29T01:44:36;8.30;99.90
82836;DHT22;72587;50.746;8.246;2023-12-29T01:47:03;8.30;99.90
82836;DHT22;72587;50.746;8.246;2023-12-29T01:49:31;8.30;99.90
82836;DHT22;72587;50.746;8.246;2023-12-29T01:51:58;8.30;99.90
82836;DHT22;72587;50.746;8.246;2023-12-29T01:54:28;8.30;99.90
82836;DHT22;72587;50.746;8.246;2023-12-29T01:56:56;8.20;99.90
82836;DHT22;72587;50.746;8.246;2023-12-29T01:59:22;8.10;99.90
82836;DHT22;72587;50.746;8.246;2023-12-29T02:01:49;8.10;99.90
82836;DHT22;72587;50.746;8.246;2023-12-29T02:04:15;8.00;99.90
82836;DHT22;72587;50.746;8.246;2023-12-29T02:06:42;7.90;99.90
82836;DHT22;72587;50.746;8.246;2023-12-29T02:09:08;8.00;99.90
82836;DHT22;72587;50.746;8.246;2023-12-29T02:11:34;8.00;99.90
82836;DHT22;72587;50.746;8.246;2023-12-29T02:14:00;8.00;99.90
82836;DHT22;72587;50.746;8.246;2023-12-29T02:19:31;8.10;99.90
82836;DHT22;72587;50.746;8.246;2023-12-29T02:22:02;8.10;99.90
82836;DHT22;72587;50.746;8.246;2023-12-29T02:24:27;8.10;99.90
82836;DHT22;72587;50.746;8.246;2023-12-29T02:27:00;8.10;99.90
82836;DHT22;72587;50.746;8.246;2023-12-29T02:29:30;8.10;99.90
82836;DHT22;72587;50.746;8.246;2023-12-29T02:31:59;8.10;99.90
82836;DHT22;72587;50.746;8.246;2023-12-29T02:34:25;8.10;99.90
82836;DHT22;72587;50.746;8.246;2023-12-29T02:36:52;8.20;99.90
82836;DHT22;72587;50.746;8.246;2023-12-29T02:39:18;8.20;99.90
82836;DHT22;72587;50.746;8.246;2023-12-29T02:41:44;8.10;99.90
82836;DHT22;72587;50.746;8.246;2023-12-29T02:44:10;8.10;99.90
82836;DHT22;72587;50.746;8.246;2023-12-29T02:46:35;8.10;99.90
82836;DHT22;72587;50.746;8.246;2023-12-29T02:49:01;8.30;99.90
82836;DHT22;72587;50.746;8.246;2023-12-29T02:51:26;8.30;99.90
82836;DHT22;72587;50.746;8.246;2023-12-29T02:53:52;8.40;99.90
82836;DHT22;72587;50.746;8.246;2023-12-29T02:56:18;8.40;99.90
82836;DHT22;72587;50.746;8.246;2023-12-29T02:58:43;8.40;99.90
82836;DHT22;72587;50.746;8.246;2023-12-29T03:01:11;8.40;99.90
82836;DHT22;72587;50.746;8.246;2023-12-29T03:03:37;8.40;99.90
82836;DHT22;72587;50.746;8.246;2023-12-29T03:06:05;8.40;99.90
82836;DHT22;72587;50.746;8.246;2023-12-29T03:08:31;8.40;99.90
82836;DHT22;72587;50.746;8.246;2023-12-29T03:10:58;8.40;99.90
82836;DHT22;72587;50.746;8.246;2023-12-29T03:13:23;8.40;99.90
82836;DHT22;72587;50.746;8.246;2023-12-29T03:15:49;8.40;99.90
82836;DHT22;72587;50.746;8.246;2023-12-29T03:18:14;8.30;99.90
82836;DHT22;72587;50.746;8.246;2023-12-29T03:20:40;8.30;99.90
82836;DHT22;72587;50.746;8.246;2023-12-29T03:23:05;8.30;99.90
82836;DHT22;72587;50.746;8.246;2023-12-29T03:25:31;8.40;99.90
82836;DHT22;72587;50.746;8.246;2023-12-29T03:27:56;8.30;99.90
82836;DHT22;72587;50.746;8.246;2023-12-29T03:30:22;8.30;99.90
82836;DHT22;72587;50.746;8.246;2023-12-29T03:32:47;8.30;99.90
82836;DHT22;72587;50.746;8.246;2023-12-29T03:35:13;8.30;99.90
82836;DHT22;72587;50.746;8.246;2023-12-29T03:37:39;8.30;99.90
82836;DHT22;72587;50.746;8.246;2023-12-29T03:40:05;8.30;99.90
82836;DHT22;72587;50.746;8.246;2023-12-29T03:42:30;8.30;99.90
82836;DHT22;72587;50.746;8.246;2023-12-29T03:44:56;8.20;99.90
82836;DHT22;72587;50.746;8.246;2023-12-29T03:47:23;8.20;99.90
82836;DHT22;72587;50.746;8.246;2023-12-29T03:49:48;8.20;99.90
82836;DHT22;72587;50.746;8.246;2023-12-29T03:52:14;8.20;99.90
82836;DHT22;72587;50.746;8.246;2023-12-29T03:54:40;8.30;99.90
82836;DHT22;72587;50.746;8.246;2023-12-29T03:57:05;8.30;99.90
82836;DHT22;72587;50.746;8.246;2023-12-29T03:59:31;8.30;99.90
82836;DHT22;72587;50.746;8.246;2023-12-29T04:01:56;8.40;99.90
82836;DHT22;72587;50.746;8.246;2023-12-29T04:04:22;8.30;99.90
82836;DHT22;72587;50.746;8.246;2023-12-29T04:06:47;8.30;99.90
82836;DHT22;72587;50.746;8.246;2023-12-29T04:09:13;8.30;99.90
82836;DHT22;72587;50.746;8.246;2023-12-29T04:11:38;8.40;99.90
82836;DHT22;72587;50.746;8.246;2023-12-29T04:14:04;8.30;99.90
82836;DHT22;72587;50.746;8.246;2023-12-29T04:16:30;8.30;99.90
82836;DHT22;72587;50.746;8.246;2023-12-29T04:18:55;8.30;99.90
82836;DHT22;72587;50.746;8.246;2023-12-29T04:21:21;8.30;99.90
82836;DHT22;72587;50.746;8.246;2023-12-29T04:23:46;8.50;99.90
82836;DHT22;72587;50.746;8.246;2023-12-29T04:26:12;8.40;99.90
82836;DHT22;72587;50.746;8.246;2023-12-29T04:28:38;8.40;99.90
82836;DHT22;72587;50.746;8.246;2023-12-29T04:31:03;8.40;99.90
82836;DHT22;72587;50.746;8.246;2023-12-29T04:33:29;8.40;99.90
82836;DHT22;72587;50.746;8.246;2023-12-29T04:35:54;8.40;99.90
82836;DHT22;72587;50.746;8.246;2023-12-29T04:38:20;8.40;99.90
82836;DHT22;72587;50.746;8.246;2023-12-29T04:40:46;8.40;99.90
82836;DHT22;72587;50.746;8.246;2023-12-29T04:43:15;8.50;99.90
82836;DHT22;72587;50.746;8.246;2023-12-29T04:45:40;8.50;99.90
82836;DHT22;72587;50.746;8.246;2023-12-29T04:48:06;8.60;99.90
82836;DHT22;72587;50.746;8.246;2023-12-29T04:50:32;8.70;99.90
82836;DHT22;72587;50.746;8.246;2023-12-29T04:52:57;8.70;99.90
82836;DHT22;72587;50.746;8.246;2023-12-29T04:55:23;8.80;99.90
82836;DHT22;72587;50.746;8.246;2023-12-29T04:57:48;8.80;99.90
82836;DHT22;72587;50.746;8.246;2023-12-29T05:00:14;8.80;99.90
82836;DHT22;72587;50.746;8.246;2023-12-29T05:02:40;8.80;99.90
82836;DHT22;72587;50.746;8.246;2023-12-29T05:05:05;8.80;99.90
82836;DHT22;72587;50.746;8.246;2023-12-29T05:07:31;8.80;99.90
82836;DHT22;72587;50.746;8.246;2023-12-29T05:09:56;8.80;99.90
82836;DHT22;72587;50.746;8.246;2023-12-29T05:12:22;8.90;99.90
82836;DHT22;72587;50.746;8.246;2023-12-29T05:14:48;8.80;99.90
82836;DHT22;72587;50.746;8.246;2023-12-29T05:17:13;8.80;99.90
82836;DHT22;72587;50.746;8.246;2023-12-29T05:19:39;8.80;99.90
82836;DHT22;72587;50.746;8.246;2023-12-29T05:22:04;8.80;99.90
82836;DHT22;72587;50.746;8.246;2023-12-29T05:24:30;8.70;99.90
82836;DHT22;72587;50.746;8.246;2023-12-29T05:26:55;8.70;99.90
82836;DHT22;72587;50.746;8.246;2023-12-29T05:29:21;8.70;99.90
82836;DHT22;72587;50.746;8.246;2023-12-29T05:31:46;8.80;99.90
82836;DHT22;72587;50.746;8.246;2023-12-29T05:34:12;8.80;99.90
82836;DHT22;72587;50.746;8.246;2023-12-29T05:36:38;8.70;99.90
82836;DHT22;72587;50.746;8.246;2023-12-29T05:39:04;8.70;99.90
82836;DHT22;72587;50.746;8.246;2023-12-29T05:41:29;8.60;99.90
82836;DHT22;72587;50.746;8.246;2023-12-29T05:43:55;8.70;99.90
82836;DHT22;72587;50.746;8.246;2023-12-29T05:46:23;8.70;99.90
82836;DHT22;72587;50.746;8.246;2023-12-29T05:48:48;8.80;99.90
82836;DHT22;72587;50.746;8.246;2023-12-29T05:51:14;8.70;99.90
82836;DHT22;72587;50.746;8.246;2023-12-29T05:53:40;8.60;99.90
82836;DHT22;72587;50.746;8.246;2023-12-29T05:56:06;8.70;99.90
82836;DHT22;72587;50.746;8.246;2023-12-29T05:58:32;8.70;99.90
82836;DHT22;72587;50.746;8.246;2023-12-29T06:00:57;8.70;99.90
82836;DHT22;72587;50.746;8.246;2023-12-29T06:03:27;8.80;99.90
82836;DHT22;72587;50.746;8.246;2023-12-29T06:05:53;8.70;99.90
82836;DHT22;72587;50.746;8.246;2023-12-29T06:08:19;8.70;99.90
82836;DHT22;72587;50.746;8.246;2023-12-29T06:10:44;8.70;99.90
82836;DHT22;72587;50.746;8.246;2023-12-29T06:13:10;8.80;99.90
82836;DHT22;72587;50.746;8.246;2023-12-29T06:15:35;8.80;99.90
82836;DHT22;72587;50.746;8.246;2023-12-29T06:18:02;8.90;99.90
82836;DHT22;72587;50.746;8.246;2023-12-29T06:20:27;8.90;99.90
82836;DHT22;72587;50.746;8.246;2023-12-29T06:22:53;8.90;99.90
82836;DHT22;72587;50.746;8.246;2023-12-29T06:25:19;8.90;99.90
82836;DHT22;72587;50.746;8.246;2023-12-29T06:27:44;8.90;99.90
82836;DHT22;72587;50.746;8.246;2023-12-29T06:30:10;9.00;99.90
82836;DHT22;72587;50.746;8.246;2023-12-29T06:32:36;8.90;99.90
82836;DHT22;72587;50.746;8.246;2023-12-29T06:35:03;8.90;99.90
82836;DHT22;72587;50.746;8.246;2023-12-29T06:37:28;8.90;99.90
82836;DHT22;72587;50.746;8.246;2023-12-29T06:39:54;8.90;99.90
82836;DHT22;72587;50.746;8.246;2023-12-29T06:42:19;8.90;99.90
82836;DHT22;72587;50.746;8.246;2023-12-29T06:44:46;9.00;99.90
82836;DHT22;72587;50.746;8.246;2023-12-29T06:47:12;8.90;99.90
82836;DHT22;72587;50.746;8.246;2023-12-29T06:49:39;8.90;99.90
82836;DHT22;72587;50.746;8.246;2023-12-29T06:52:05;8.90;99.90
82836;DHT22;72587;50.746;8.246;2023-12-29T06:54:30;8.90;99.90
82836;DHT22;72587;50.746;8.246;2023-12-29T06:56:56;8.90;99.90
82836;DHT22;72587;50.746;8.246;2023-12-29T06:59:22;8.80;99.90
82836;DHT22;72587;50.746;8.246;2023-12-29T07:01:48;8.80;99.90
82836;DHT22;72587;50.746;8.246;2023-12-29T07:04:14;8.70;99.90
82836;DHT22;72587;50.746;8.246;2023-12-29T07:06:41;8.70;99.90
82836;DHT22;72587;50.746;8.246;2023-12-29T07:09:07;8.70;99.90
82836;DHT22;72587;50.746;8.246;2023-12-29T07:11:34;8.70;99.90
82836;DHT22;72587;50.746;8.246;2023-12-29T07:13:59;8.70;99.90
82836;DHT22;72587;50.746;8.246;2023-12-29T07:16:25;8.60;99.90
82836;DHT22;72587;50.746;8.246;2023-12-29T07:18:51;8.60;99.90
82836;DHT22;72587;50.746;8.246;2023-12-29T07:21:17;8.60;99.90
82836;DHT22;72587;50.746;8.246;2023-12-29T07:23:43;8.70;99.90
82836;DHT22;72587;50.746;8.246;2023-12-29T07:26:09;8.70;99.90
82836;DHT22;72587;50.746;8.246;2023-12-29T07:28:34;8.70;99.90
82836;DHT22;72587;50.746;8.246;2023-12-29T07:31:01;8.70;99.90
82836;DHT22;72587;50.746;8.246;2023-12-29T07:33:26;8.70;99.90
82836;DHT22;72587;50.746;8.246;2023-12-29T07:35:52;8.70;99.90
82836;DHT22;72587;50.746;8.246;2023-12-29T07:38:18;8.70;99.90
82836;DHT22;72587;50.746;8.246;2023-12-29T07:40:43;8.60;99.90
82836;DHT22;72587;50.746;8.246;2023-12-29T07:43:09;8.70;99.90
82836;DHT22;72587;50.746;8.246;2023-12-29T07:45:35;8.70;99.90
82836;DHT22;72587;50.746;8.246;2023-12-29T07:48:04;8.60;99.90
82836;DHT22;72587;50.746;8.246;2023-12-29T07:50:30;8.60;99.90
82836;DHT22;72587;50.746;8.246;2023-12-29T07:52:55;8.60;99.90
82836;DHT22;72587;50.746;8.246;2023-12-29T07:55:21;8.60;99.90
82836;DHT22;72587;50.746;8.246;2023-12-29T07:57:47;8.70;99.90
82836;DHT22;72587;50.746;8.246;2023-12-29T08:00:16;8.70;99.90
82836;DHT22;72587;50.746;8.246;2023-12-29T08:02:42;8.70;99.90
82836;DHT22;72587;50.746;8.246;2023-12-29T08:05:07;8.70;99.90
82836;DHT22;72587;50.746;8.246;2023-12-29T08:07:36;8.70;99.90
82836;DHT22;72587;50.746;8.246;2023-12-29T08:10:05;8.80;99.90
82836;DHT22;72587;50.746;8.246;2023-12-29T08:12:32;8.80;99.90
82836;DHT22;72587;50.746;8.246;2023-12-29T08:14:59;8.80;99.90
82836;DHT22;72587;50.746;8.246;2023-12-29T08:17:25;8.80;99.90
82836;DHT22;72587;50.746;8.246;2023-12-29T08:19:50;8.90;99.90
82836;DHT22;72587;50.746;8.246;2023-12-29T08:22:16;9.00;99.90
82836;DHT22;72587;50.746;8.246;2023-12-29T08:24:41;9.00;99.90
82836;DHT22;72587;50.746;8.246;2023-12-29T08:27:12;9.00;99.90
82836;DHT22;72587;50.746;8.246;2023-12-29T08:29:38;8.90;99.90
82836;DHT22;72587;50.746;8.246;2023-12-29T08:32:03;9.00;99.90
82836;DHT22;72587;50.746;8.246;2023-12-29T08:34:29;9.10;99.90
82836;DHT22;72587;50.746;8.246;2023-12-29T08:36:55;9.10;99.90
82836;DHT22;72587;50.746;8.246;2023-12-29T08:39:20;9.10;99.90
82836;DHT22;72587;50.746;8.246;2023-12-29T08:41:47;9.20;99.90
82836;DHT22;72587;50.746;8.246;2023-12-29T08:44:15;9.20;99.90
82836;DHT22;72587;50.746;8.246;2023-12-29T08:46:40;9.30;99.90
82836;DHT22;72587;50.746;8.246;2023-12-29T08:49:06;9.20;99.90
82836;DHT22;72587;50.746;8.246;2023-12-29T08:51:32;9.30;99.90
82836;DHT22;72587;50.746;8.246;2023-12-29T08:53:58;9.30;99.90
82836;DHT22;72587;50.746;8.246;2023-12-29T08:56:23;9.30;99.90
82836;DHT22;72587;50.746;8.246;2023-12-29T08:58:49;9.40;99.90
82836;DHT22;72587;50.746;8.246;2023-12-29T09:01:15;9.50;99.90
82836;DHT22;72587;50.746;8.246;2023-12-29T09:03:40;9.60;99.90
82836;DHT22;72587;50.746;8.246;2023-12-29T09:06:06;9.70;99.90
82836;DHT22;72587;50.746;8.246;2023-12-29T09:08:34;9.80;99.90
82836;DHT22;72587;50.746;8.246;2023-12-29T09:11:00;9.90;99.90
82836;DHT22;72587;50.746;8.246;2023-12-29T09:13:25;10.00;99.90
82836;DHT22;72587;50.746;8.246;2023-12-29T09:15:53;10.00;99.90
82836;DHT22;72587;50.746;8.246;2023-12-29T09:18:18;10.00;99.90
82836;DHT22;72587;50.746;8.246;2023-12-29T09:20:44;10.00;99.90
82836;DHT22;72587;50.746;8.246;2023-12-29T09:23:09;10.00;99.90
82836;DHT22;72587;50.746;8.246;2023-12-29T09:25:35;10.00;99.90
82836;DHT22;72587;50.746;8.246;2023-12-29T09:28:01;10.00;99.90
82836;DHT22;72587;50.746;8.246;2023-12-29T09:30:26;10.10;99.90
82836;DHT22;72587;50.746;8.246;2023-12-29T09:32:52;10.20;99.90
82836;DHT22;72587;50.746;8.246;2023-12-29T09:35:17;10.10;99.90
82836;DHT22;72587;50.746;8.246;2023-12-29T09:37:47;10.20;99.90
82836;DHT22;72587;50.746;8.246;2023-12-29T09:40:13;10.20;99.90
82836;DHT22;72587;50.746;8.246;2023-12-29T09:42:46;10.10;99.90
82836;DHT22;72587;50.746;8.246;2023-12-29T09:45:12;10.10;99.90
82836;DHT22;72587;50.746;8.246;2023-12-29T09:47:41;10.10;99.90
82836;DHT22;72587;50.746;8.246;2023-12-29T09:50:11;10.10;99.90
82836;DHT22;72587;50.746;8.246;2023-12-29T09:52:38;10.10;99.90
82836;DHT22;72587;50.746;8.246;2023-12-29T09:55:05;10.10;99.90
82836;DHT22;72587;50.746;8.246;2023-12-29T09:57:35;10.00;99.90
82836;DHT22;72587;50.746;8.246;2023-12-29T10:00:01;10.00;99.90
82836;DHT22;72587;50.746;8.246;2023-12-29T10:02:26;10.00;99.90
82836;DHT22;72587;50.746;8.246;2023-12-29T10:04:52;10.00;99.90
82836;DHT22;72587;50.746;8.246;2023-12-29T10:07:25;10.00;99.90
82836;DHT22;72587;50.746;8.246;2023-12-29T10:09:57;10.10;99.90
82836;DHT22;72587;50.746;8.246;2023-12-29T10:12:24;10.10;99.90
82836;DHT22;72587;50.746;8.246;2023-12-29T10:17:46;10.30;99.90
82836;DHT22;72587;50.746;8.246;2023-12-29T10:25:34;10.70;99.90
82836;DHT22;72587;50.746;8.246;2023-12-29T10:28:01;10.60;99.90
82836;DHT22;72587;50.746;8.246;2023-12-29T10:30:28;10.70;99.90
82836;DHT22;72587;50.746;8.246;2023-12-29T10:32:54;10.70;99.90
82836;DHT22;72587;50.746;8.246;2023-12-29T10:35:20;10.60;99.90
82836;DHT22;72587;50.746;8.246;2023-12-29T10:37:45;10.50;99.90
82836;DHT22;72587;50.746;8.246;2023-12-29T10:40:21;10.50;99.90
82836;DHT22;72587;50.746;8.246;2023-12-29T10:42:56;10.40;99.90
82836;DHT22;72587;50.746;8.246;2023-12-29T10:45:30;10.40;99.90
82836;DHT22;72587;50.746;8.246;2023-12-29T10:47:56;10.30;99.90
82836;DHT22;72587;50.746;8.246;2023-12-29T10:50:21;10.40;99.90
82836;DHT22;72587;50.746;8.246;2023-12-29T10:52:47;10.30;99.90
82836;DHT22;72587;50.746;8.246;2023-12-29T10:55:12;10.40;99.90
82836;DHT22;72587;50.746;8.246;2023-12-29T10:57:39;10.40;99.90
82836;DHT22;72587;50.746;8.246;2023-12-29T11:00:05;10.50;99.90
82836;DHT22;72587;50.746;8.246;2023-12-29T11:02:33;10.50;99.90
82836;DHT22;72587;50.746;8.246;2023-12-29T11:05:07;10.50;99.90
82836;DHT22;72587;50.746;8.246;2023-12-29T11:07:37;10.50;99.90
82836;DHT22;72587;50.746;8.246;2023-12-29T11:10:05;10.40;99.90
82836;DHT22;72587;50.746;8.246;2023-12-29T11:12:39;10.40;99.90
82836;DHT22;72587;50.746;8.246;2023-12-29T11:15:06;10.40;99.90
82836;DHT22;72587;50.746;8.246;2023-12-29T11:17:34;10.40;99.90
82836;DHT22;72587;50.746;8.246;2023-12-29T11:20:00;10.40;99.90
82836;DHT22;72587;50.746;8.246;2023-12-29T11:22:31;10.40;99.90
82836;DHT22;72587;50.746;8.246;2023-12-29T11:24:57;10.40;99.90
82836;DHT22;72587;50.746;8.246;2023-12-29T11:27:30;10.30;99.90
82836;DHT22;72587;50.746;8.246;2023-12-29T11:30:00;10.40;99.90
82836;DHT22;72587;50.746;8.246;2023-12-29T11:32:56;10.50;99.90
82836;DHT22;72587;50.746;8.246;2023-12-29T11:35:28;10.50;99.90
82836;DHT22;72587;50.746;8.246;2023-12-29T11:38:54;10.50;99.90
82836;DHT22;72587;50.746;8.246;2023-12-29T11:41:25;10.40;99.90
82836;DHT22;72587;50.746;8.246;2023-12-29T11:43:57;10.40;99.90
82836;DHT22;72587;50.746;8.246;2023-12-29T11:46:52;10.20;99.90
82836;DHT22;72587;50.746;8.246;2023-12-29T11:49:18;10.30;99.90
82836;DHT22;72587;50.746;8.246;2023-12-29T11:51:46;10.30;99.90
82836;DHT22;72587;50.746;8.246;2023-12-29T11:54:26;10.30;99.90
82836;DHT22;72587;50.746;8.246;2023-12-29T11:56:53;10.30;99.90
82836;DHT22;72587;50.746;8.246;2023-12-29T11:59:26;10.30;99.90
82836;DHT22;72587;50.746;8.246;2023-12-29T12:01:54;10.40;99.90
82836;DHT22;72587;50.746;8.246;2023-12-29T12:04:43;10.40;99.90
82836;DHT22;72587;50.746;8.246;2023-12-29T12:09:47;10.50;99.90
82836;DHT22;72587;50.746;8.246;2023-12-29T12:12:14;10.60;99.90
82836;DHT22;72587;50.746;8.246;2023-12-29T12:15:00;10.60;99.90
82836;DHT22;72587;50.746;8.246;2023-12-29T12:17:34;10.60;99.90
82836;DHT22;72587;50.746;8.246;2023-12-29T12:20:09;10.70;99.90
82836;DHT22;72587;50.746;8.246;2023-12-29T12:22:36;10.80;99.90
82836;DHT22;72587;50.746;8.246;2023-12-29T12:25:03;10.80;99.90
82836;DHT22;72587;50.746;8.246;2023-12-29T12:27:29;10.70;99.90
82836;DHT22;72587;50.746;8.246;2023-12-29T12:29:56;10.70;99.90
82836;DHT22;72587;50.746;8.246;2023-12-29T12:32:23;10.80;99.90
82836;DHT22;72587;50.746;8.246;2023-12-29T12:34:49;10.90;99.90
82836;DHT22;72587;50.746;8.246;2023-12-29T12:37:22;10.90;99.90
82836;DHT22;72587;50.746;8.246;2023-12-29T12:39:48;10.80;99.90
82836;DHT22;72587;50.746;8.246;2023-12-29T12:42:15;10.80;99.90
82836;DHT22;72587;50.746;8.246;2023-12-29T12:44:45;10.80;99.90
82836;DHT22;72587;50.746;8.246;2023-12-29T12:47:16;10.70;99.90
82836;DHT22;72587;50.746;8.246;2023-12-29T12:49:43;10.80;99.90
82836;DHT22;72587;50.746;8.246;2023-12-29T12:52:09;10.80;99.90
82836;DHT22;72587;50.746;8.246;2023-12-29T12:54:35;10.80;99.90
82836;DHT22;72587;50.746;8.246;2023-12-29T12:57:01;10.80;99.90
82836;DHT22;72587;50.746;8.246;2023-12-29T12:59:27;10.80;99.90
82836;DHT22;72587;50.746;8.246;2023-12-29T13:01:53;10.70;99.90
82836;DHT22;72587;50.746;8.246;2023-12-29T13:04:19;10.70;99.90
82836;DHT22;72587;50.746;8.246;2023-12-29T13:06:45;10.80;99.90
82836;DHT22;72587;50.746;8.246;2023-12-29T13:09:11;11.00;99.90
82836;DHT22;72587;50.746;8.246;2023-12-29T13:11:43;11.00;99.90
82836;DHT22;72587;50.746;8.246;2023-12-29T13:14:08;11.00;99.90
82836;DHT22;72587;50.746;8.246;2023-12-29T13:16:35;11.00;99.90
82836;DHT22;72587;50.746;8.246;2023-12-29T13:19:22;11.00;99.90
82836;DHT22;72587;50.746;8.246;2023-12-29T13:21:51;11.00;99.90
82836;DHT22;72587;50.746;8.246;2023-12-29T13:24:20;10.90;99.90
82836;DHT22;72587;50.746;8.246;2023-12-29T13:26:47;11.00;99.90
82836;DHT22;72587;50.746;8.246;2023-12-29T13:29:18;10.90;99.90
82836;DHT22;72587;50.746;8.246;2023-12-29T13:31:46;10.90;99.90
82836;DHT22;72587;50.746;8.246;2023-12-29T13:34:26;10.90;99.90
82836;DHT22;72587;50.746;8.246;2023-12-29T13:39:42;10.80;99.90
82836;DHT22;72587;50.746;8.246;2023-12-29T13:42:11;10.80;99.90
82836;DHT22;72587;50.746;8.246;2023-12-29T13:44:41;10.80;99.90
82836;DHT22;72587;50.746;8.246;2023-12-29T13:47:07;10.80;99.90
82836;DHT22;72587;50.746;8.246;2023-12-29T13:49:33;10.70;99.90
82836;DHT22;72587;50.746;8.246;2023-12-29T13:52:02;10.70;99.90
82836;DHT22;72587;50.746;8.246;2023-12-29T13:54:28;10.60;99.90
82836;DHT22;72587;50.746;8.246;2023-12-29T13:56:54;10.50;99.90
82836;DHT22;72587;50.746;8.246;2023-12-29T13:59:32;10.50;99.90
82836;DHT22;72587;50.746;8.246;2023-12-29T14:01:59;10.50;99.90
82836;DHT22;72587;50.746;8.246;2023-12-29T14:04:28;10.40;99.90
82836;DHT22;72587;50.746;8.246;2023-12-29T14:06:59;10.30;99.90
82836;DHT22;72587;50.746;8.246;2023-12-29T14:09:25;10.20;99.90
82836;DHT22;72587;50.746;8.246;2023-12-29T14:11:51;10.20;99.90
82836;DHT22;72587;50.746;8.246;2023-12-29T14:14:24;10.10;99.90
82836;DHT22;72587;50.746;8.246;2023-12-29T14:16:53;10.10;99.90
82836;DHT22;72587;50.746;8.246;2023-12-29T14:19:19;10.00;99.90
82836;DHT22;72587;50.746;8.246;2023-12-29T14:21:49;10.10;99.90
82836;DHT22;72587;50.746;8.246;2023-12-29T14:24:16;10.10;99.90
82836;DHT22;72587;50.746;8.246;2023-12-29T14:29:19;10.00;99.90
82836;DHT22;72587;50.746;8.246;2023-12-29T14:31:46;9.90;99.90
82836;DHT22;72587;50.746;8.246;2023-12-29T14:34:13;9.90;99.90
82836;DHT22;72587;50.746;8.246;2023-12-29T14:36:42;9.90;99.90
82836;DHT22;72587;50.746;8.246;2023-12-29T14:39:08;9.80;99.90
82836;DHT22;72587;50.746;8.246;2023-12-29T14:41:35;9.80;99.90
82836;DHT22;72587;50.746;8.246;2023-12-29T14:44:02;9.70;99.90
82836;DHT22;72587;50.746;8.246;2023-12-29T14:46:30;9.70;99.90
82836;DHT22;72587;50.746;8.246;2023-12-29T14:48:57;9.60;99.90
82836;DHT22;72587;50.746;8.246;2023-12-29T14:51:25;9.60;99.90
82836;DHT22;72587;50.746;8.246;2023-12-29T14:53:51;9.60;99.90
82836;DHT22;72587;50.746;8.246;2023-12-29T14:56:17;9.60;99.90
82836;DHT22;72587;50.746;8.246;2023-12-29T14:58:44;9.50;99.90
82836;DHT22;72587;50.746;8.246;2023-12-29T15:01:09;9.50;99.90
82836;DHT22;72587;50.746;8.246;2023-12-29T15:03:36;9.50;99.90
82836;DHT22;72587;50.746;8.246;2023-12-29T15:06:02;9.50;99.90
82836;DHT22;72587;50.746;8.246;2023-12-29T15:08:28;9.40;99.90
82836;DHT22;72587;50.746;8.246;2023-12-29T15:11:00;9.30;99.90
82836;DHT22;72587;50.746;8.246;2023-12-29T15:13:26;9.30;99.90
82836;DHT22;72587;50.746;8.246;2023-12-29T15:15:52;9.30;99.90
82836;DHT22;72587;50.746;8.246;2023-12-29T15:18:18;9.30;99.90
82836;DHT22;72587;50.746;8.246;2023-12-29T15:20:44;9.30;99.90
82836;DHT22;72587;50.746;8.246;2023-12-29T15:23:09;9.20;99.90
82836;DHT22;72587;50.746;8.246;2023-12-29T15:25:35;9.20;99.90
82836;DHT22;72587;50.746;8.246;2023-12-29T15:28:02;9.20;99.90
82836;DHT22;72587;50.746;8.246;2023-12-29T15:30:27;9.20;99.90
82836;DHT22;72587;50.746;8.246;2023-12-29T15:32:53;9.20;99.90
82836;DHT22;72587;50.746;8.246;2023-12-29T15:35:18;9.20;99.90
82836;DHT22;72587;50.746;8.246;2023-12-29T15:37:44;9.20;99.90
82836;DHT22;72587;50.746;8.246;2023-12-29T15:40:10;9.20;99.90
82836;DHT22;72587;50.746;8.246;2023-12-29T15:42:36;9.20;99.90
82836;DHT22;72587;50.746;8.246;2023-12-29T15:45:01;9.10;99.90
82836;DHT22;72587;50.746;8.246;2023-12-29T15:47:27;9.10;99.90
82836;DHT22;72587;50.746;8.246;2023-12-29T15:49:52;9.10;99.90
82836;DHT22;72587;50.746;8.246;2023-12-29T15:52:18;9.00;99.90
82836;DHT22;72587;50.746;8.246;2023-12-29T15:54:43;9.00;99.90
82836;DHT22;72587;50.746;8.246;2023-12-29T15:57:09;9.00;99.90
82836;DHT22;72587;50.746;8.246;2023-12-29T15:59:35;9.00;99.90